sensor_id;sensor_type;location;lat;lon;timestamp;P1;durP1;ratioP1;P2;durP2;ratioP2
53903;SDS011;39812;52.430;16.936;2023-12-04T00:00:12;21.45;;;11.05;;
53903;SDS011;39812;52.430;16.936;2023-12-04T00:02:39;20.50;;;10.88;;
53903;SDS011;39812;52.430;16.936;2023-12-04T00:05:05;19.55;;;10.10;;
53903;SDS011;39812;52.430;16.936;2023-12-04T00:07:32;21.63;;;10.90;;
53903;SDS011;39812;52.430;16.936;2023-12-04T00:09:58;26.27;;;10.40;;
53903;SDS011;39812;52.430;16.936;2023-12-04T00:12:24;23.50;;;9.95;;
53903;SDS011;39812;52.430;16.936;2023-12-04T00:14:50;17.80;;;7.88;;
53903;SDS011;39812;52.430;16.936;2023-12-04T00:17:16;19.88;;;9.63;;
53903;SDS011;39812;52.430;16.936;2023-12-04T00:19:43;21.02;;;11.55;;
53903;SDS011;39812;52.430;16.936;2023-12-04T00:22:09;20.83;;;9.57;;
53903;SDS011;39812;52.430;16.936;2023-12-04T00:24:35;21.05;;;10.50;;
53903;SDS011;39812;52.430;16.936;2023-12-04T00:27:01;14.98;;;7.93;;
53903;SDS011;39812;52.430;16.936;2023-12-04T00:29:27;17.58;;;9.00;;
53903;SDS011;39812;52.430;16.936;2023-12-04T00:31:53;17.00;;;9.63;;
53903;SDS011;39812;52.430;16.936;2023-12-04T00:34:21;21.40;;;10.95;;
53903;SDS011;39812;52.430;16.936;2023-12-04T00:36:47;17.95;;;9.55;;
53903;SDS011;39812;52.430;16.936;2023-12-04T00:39:13;18.75;;;10.13;;
53903;SDS011;39812;52.430;16.936;2023-12-04T00:41:39;19.42;;;8.55;;
53903;SDS011;39812;52.430;16.936;2023-12-04T00:44:05;12.70;;;6.82;;
53903;SDS011;39812;52.430;16.936;2023-12-04T00:46:32;27.25;;;12.38;;
53903;SDS011;39812;52.430;16.936;2023-12-04T00:48:58;16.08;;;8.43;;
53903;SDS011;39812;52.430;16.936;2023-12-04T00:51:24;21.90;;;9.82;;
53903;SDS011;39812;52.430;16.936;2023-12-04T00:53:51;18.75;;;9.30;;
53903;SDS011;39812;52.430;16.936;2023-12-04T00:56:17;23.27;;;9.60;;
53903;SDS011;39812;52.430;16.936;2023-12-04T00:58:45;22.65;;;11.25;;
53903;SDS011;39812;52.430;16.936;2023-12-04T01:01:11;26.13;;;11.57;;
53903;SDS011;39812;52.430;16.936;2023-12-04T01:03:37;24.23;;;11.02;;
53903;SDS011;39812;52.430;16.936;2023-12-04T01:06:03;35.05;;;13.48;;
53903;SDS011;39812;52.430;16.936;2023-12-04T01:08:29;20.83;;;9.85;;
53903;SDS011;39812;52.430;16.936;2023-12-04T01:10:55;24.75;;;10.60;;
53903;SDS011;39812;52.430;16.936;2023-12-04T01:13:21;30.05;;;11.27;;
53903;SDS011;39812;52.430;16.936;2023-12-04T01:15:47;16.38;;;8.82;;
53903;SDS011;39812;52.430;16.936;2023-12-04T01:18:14;29.30;;;11.88;;
53903;SDS011;39812;52.430;16.936;2023-12-04T01:20:40;17.42;;;8.95;;
53903;SDS011;39812;52.430;16.936;2023-12-04T01:23:06;23.00;;;11.23;;
53903;SDS011;39812;52.430;16.936;2023-12-04T01:25:32;20.67;;;10.63;;
53903;SDS011;39812;52.430;16.936;2023-12-04T01:27:58;20.00;;;10.52;;
53903;SDS011;39812;52.430;16.936;2023-12-04T01:30:24;18.58;;;8.10;;
53903;SDS011;39812;52.430;16.936;2023-12-04T01:32:50;18.85;;;9.52;;
53903;SDS011;39812;52.430;16.936;2023-12-04T01:35:16;14.07;;;7.40;;
53903;SDS011;39812;52.430;16.936;2023-12-04T01:37:43;26.10;;;11.73;;
53903;SDS011;39812;52.430;16.936;2023-12-04T01:40:09;17.50;;;7.82;;
53903;SDS011;39812;52.430;16.936;2023-12-04T01:42:35;15.80;;;8.02;;
53903;SDS011;39812;52.430;16.936;2023-12-04T01:45:01;19.38;;;8.32;;
53903;SDS011;39812;52.430;16.936;2023-12-04T01:47:27;16.75;;;8.40;;
53903;SDS011;39812;52.430;16.936;2023-12-04T01:49:54;13.57;;;7.28;;
53903;SDS011;39812;52.430;16.936;2023-12-04T01:52:20;14.57;;;7.75;;
53903;SDS011;39812;52.430;16.936;2023-12-04T01:54:46;21.85;;;10.07;;
53903;SDS011;39812;52.430;16.936;2023-12-04T01:57:12;21.77;;;10.32;;
53903;SDS011;39812;52.430;16.936;2023-12-04T01:59:38;17.55;;;7.85;;
53903;SDS011;39812;52.430;16.936;2023-12-04T02:02:04;15.75;;;8.63;;
53903;SDS011;39812;52.430;16.936;2023-12-04T02:04:30;20.58;;;8.85;;
53903;SDS011;39812;52.430;16.936;2023-12-04T02:06:57;17.85;;;8.85;;
53903;SDS011;39812;52.430;16.936;2023-12-04T02:09:24;18.30;;;10.52;;
53903;SDS011;39812;52.430;16.936;2023-12-04T02:11:50;21.05;;;8.18;;
53903;SDS011;39812;52.430;16.936;2023-12-04T02:14:18;25.05;;;12.32;;
53903;SDS011;39812;52.430;16.936;2023-12-04T02:16:44;18.20;;;7.75;;
53903;SDS011;39812;52.430;16.936;2023-12-04T02:19:14;19.75;;;9.52;;
53903;SDS011;39812;52.430;16.936;2023-12-04T02:21:40;21.95;;;9.35;;
53903;SDS011;39812;52.430;16.936;2023-12-04T02:24:06;22.13;;;9.27;;
53903;SDS011;39812;52.430;16.936;2023-12-04T02:26:34;22.67;;;10.65;;
53903;SDS011;39812;52.430;16.936;2023-12-04T02:29:09;19.95;;;9.25;;
53903;SDS011;39812;52.430;16.936;2023-12-04T02:31:36;28.33;;;10.80;;
53903;SDS011;39812;52.430;16.936;2023-12-04T02:34:04;21.45;;;9.90;;
53903;SDS011;39812;52.430;16.936;2023-12-04T02:36:32;25.83;;;12.05;;
53903;SDS011;39812;52.430;16.936;2023-12-04T02:38:59;23.95;;;11.57;;
53903;SDS011;39812;52.430;16.936;2023-12-04T02:41:25;20.42;;;9.68;;
53903;SDS011;39812;52.430;16.936;2023-12-04T02:43:51;21.60;;;9.82;;
53903;SDS011;39812;52.430;16.936;2023-12-04T02:46:17;16.67;;;10.07;;
53903;SDS011;39812;52.430;16.936;2023-12-04T02:48:43;22.13;;;10.10;;
53903;SDS011;39812;52.430;16.936;2023-12-04T02:51:10;21.80;;;9.52;;
53903;SDS011;39812;52.430;16.936;2023-12-04T02:53:36;22.10;;;11.25;;
53903;SDS011;39812;52.430;16.936;2023-12-04T02:56:02;22.17;;;10.15;;
53903;SDS011;39812;52.430;16.936;2023-12-04T02:58:28;21.55;;;11.57;;
53903;SDS011;39812;52.430;16.936;2023-12-04T03:00:54;20.30;;;11.00;;
53903;SDS011;39812;52.430;16.936;2023-12-04T03:03:20;36.00;;;13.52;;
53903;SDS011;39812;52.430;16.936;2023-12-04T03:05:46;24.35;;;9.52;;
53903;SDS011;39812;52.430;16.936;2023-12-04T03:08:12;29.40;;;12.52;;
53903;SDS011;39812;52.430;16.936;2023-12-04T03:10:38;19.25;;;8.65;;
53903;SDS011;39812;52.430;16.936;2023-12-04T03:13:04;28.13;;;10.43;;
53903;SDS011;39812;52.430;16.936;2023-12-04T03:15:30;22.77;;;10.35;;
53903;SDS011;39812;52.430;16.936;2023-12-04T03:17:57;18.30;;;9.77;;
53903;SDS011;39812;52.430;16.936;2023-12-04T03:20:24;21.02;;;11.73;;
53903;SDS011;39812;52.430;16.936;2023-12-04T03:22:50;23.77;;;10.57;;
53903;SDS011;39812;52.430;16.936;2023-12-04T03:25:16;16.25;;;7.88;;
53903;SDS011;39812;52.430;16.936;2023-12-04T03:27:42;26.17;;;12.20;;
53903;SDS011;39812;52.430;16.936;2023-12-04T03:30:08;24.75;;;11.25;;
53903;SDS011;39812;52.430;16.936;2023-12-04T03:32:34;32.35;;;12.18;;
53903;SDS011;39812;52.430;16.936;2023-12-04T03:35:00;23.95;;;10.82;;
53903;SDS011;39812;52.430;16.936;2023-12-04T03:37:26;27.90;;;12.70;;
53903;SDS011;39812;52.430;16.936;2023-12-04T03:39:52;25.63;;;10.13;;
53903;SDS011;39812;52.430;16.936;2023-12-04T03:42:18;26.75;;;10.45;;
53903;SDS011;39812;52.430;16.936;2023-12-04T03:44:44;28.30;;;11.38;;
53903;SDS011;39812;52.430;16.936;2023-12-04T03:47:10;32.33;;;12.35;;
53903;SDS011;39812;52.430;16.936;2023-12-04T03:49:36;26.65;;;11.48;;
53903;SDS011;39812;52.430;16.936;2023-12-04T03:52:03;38.60;;;13.93;;
53903;SDS011;39812;52.430;16.936;2023-12-04T03:54:29;23.42;;;12.45;;
53903;SDS011;39812;52.430;16.936;2023-12-04T03:56:55;24.73;;;12.00;;
53903;SDS011;39812;52.430;16.936;2023-12-04T03:59:21;30.25;;;11.88;;
53903;SDS011;39812;52.430;16.936;2023-12-04T04:01:47;30.23;;;12.45;;
53903;SDS011;39812;52.430;16.936;2023-12-04T04:04:13;41.88;;;16.02;;
53903;SDS011;39812;52.430;16.936;2023-12-04T04:06:39;36.97;;;13.85;;
53903;SDS011;39812;52.430;16.936;2023-12-04T04:09:05;33.35;;;14.93;;
53903;SDS011;39812;52.430;16.936;2023-12-04T04:11:31;28.95;;;14.32;;
53903;SDS011;39812;52.430;16.936;2023-12-04T04:13:57;36.13;;;12.95;;
53903;SDS011;39812;52.430;16.936;2023-12-04T04:16:23;31.05;;;11.65;;
53903;SDS011;39812;52.430;16.936;2023-12-04T04:18:49;24.80;;;11.10;;
53903;SDS011;39812;52.430;16.936;2023-12-04T04:21:15;23.67;;;10.32;;
53903;SDS011;39812;52.430;16.936;2023-12-04T04:23:41;37.38;;;15.57;;
53903;SDS011;39812;52.430;16.936;2023-12-04T04:26:07;32.97;;;13.90;;
53903;SDS011;39812;52.430;16.936;2023-12-04T04:28:33;33.42;;;13.93;;
53903;SDS011;39812;52.430;16.936;2023-12-04T04:30:59;37.67;;;13.27;;
53903;SDS011;39812;52.430;16.936;2023-12-04T04:33:25;36.72;;;13.00;;
53903;SDS011;39812;52.430;16.936;2023-12-04T04:35:51;31.67;;;14.00;;
53903;SDS011;39812;52.430;16.936;2023-12-04T04:38:17;35.30;;;13.32;;
53903;SDS011;39812;52.430;16.936;2023-12-04T04:40:43;24.05;;;11.18;;
53903;SDS011;39812;52.430;16.936;2023-12-04T04:43:10;26.83;;;13.68;;
53903;SDS011;39812;52.430;16.936;2023-12-04T04:45:36;29.50;;;12.43;;
53903;SDS011;39812;52.430;16.936;2023-12-04T04:48:02;26.58;;;11.98;;
53903;SDS011;39812;52.430;16.936;2023-12-04T04:50:28;23.85;;;13.75;;
53903;SDS011;39812;52.430;16.936;2023-12-04T04:52:54;24.67;;;13.27;;
53903;SDS011;39812;52.430;16.936;2023-12-04T04:55:20;35.30;;;15.68;;
53903;SDS011;39812;52.430;16.936;2023-12-04T04:57:46;33.67;;;12.52;;
53903;SDS011;39812;52.430;16.936;2023-12-04T05:00:12;26.52;;;11.65;;
53903;SDS011;39812;52.430;16.936;2023-12-04T05:02:39;37.08;;;14.95;;
53903;SDS011;39812;52.430;16.936;2023-12-04T05:05:06;30.27;;;13.63;;
53903;SDS011;39812;52.430;16.936;2023-12-04T05:07:32;29.42;;;12.43;;
53903;SDS011;39812;52.430;16.936;2023-12-04T05:09:58;27.13;;;12.20;;
53903;SDS011;39812;52.430;16.936;2023-12-04T05:12:24;35.03;;;14.32;;
53903;SDS011;39812;52.430;16.936;2023-12-04T05:14:50;33.45;;;14.73;;
53903;SDS011;39812;52.430;16.936;2023-12-04T05:17:16;31.83;;;12.23;;
53903;SDS011;39812;52.430;16.936;2023-12-04T05:19:42;28.65;;;13.63;;
53903;SDS011;39812;52.430;16.936;2023-12-04T05:22:08;32.88;;;14.00;;
53903;SDS011;39812;52.430;16.936;2023-12-04T05:24:34;44.90;;;14.82;;
53903;SDS011;39812;52.430;16.936;2023-12-04T05:27:00;30.33;;;12.15;;
53903;SDS011;39812;52.430;16.936;2023-12-04T05:29:27;32.28;;;14.60;;
53903;SDS011;39812;52.430;16.936;2023-12-04T05:31:53;23.88;;;12.38;;
53903;SDS011;39812;52.430;16.936;2023-12-04T05:34:19;24.45;;;14.00;;
53903;SDS011;39812;52.430;16.936;2023-12-04T05:36:45;27.83;;;12.00;;
53903;SDS011;39812;52.430;16.936;2023-12-04T05:39:11;39.17;;;14.40;;
53903;SDS011;39812;52.430;16.936;2023-12-04T05:41:37;31.95;;;12.85;;
53903;SDS011;39812;52.430;16.936;2023-12-04T05:44:03;24.33;;;12.65;;
53903;SDS011;39812;52.430;16.936;2023-12-04T05:46:29;35.67;;;12.73;;
53903;SDS011;39812;52.430;16.936;2023-12-04T05:48:57;23.35;;;11.45;;
53903;SDS011;39812;52.430;16.936;2023-12-04T05:51:23;23.58;;;12.70;;
53903;SDS011;39812;52.430;16.936;2023-12-04T05:53:49;35.90;;;12.80;;
53903;SDS011;39812;52.430;16.936;2023-12-04T05:56:15;29.55;;;12.48;;
53903;SDS011;39812;52.430;16.936;2023-12-04T05:58:41;30.38;;;12.07;;
53903;SDS011;39812;52.430;16.936;2023-12-04T06:01:07;22.15;;;11.05;;
53903;SDS011;39812;52.430;16.936;2023-12-04T06:03:33;27.67;;;13.15;;
53903;SDS011;39812;52.430;16.936;2023-12-04T06:05:59;31.40;;;11.90;;
53903;SDS011;39812;52.430;16.936;2023-12-04T06:08:25;29.13;;;12.57;;
53903;SDS011;39812;52.430;16.936;2023-12-04T06:10:51;27.30;;;11.93;;
53903;SDS011;39812;52.430;16.936;2023-12-04T06:13:17;27.00;;;14.38;;
53903;SDS011;39812;52.430;16.936;2023-12-04T06:15:43;27.20;;;11.57;;
53903;SDS011;39812;52.430;16.936;2023-12-04T06:18:09;25.05;;;12.00;;
53903;SDS011;39812;52.430;16.936;2023-12-04T06:20:35;31.20;;;12.05;;
53903;SDS011;39812;52.430;16.936;2023-12-04T06:23:01;33.00;;;12.93;;
53903;SDS011;39812;52.430;16.936;2023-12-04T06:25:27;23.75;;;12.30;;
53903;SDS011;39812;52.430;16.936;2023-12-04T06:27:54;20.20;;;11.98;;
53903;SDS011;39812;52.430;16.936;2023-12-04T06:30:20;23.20;;;11.73;;
53903;SDS011;39812;52.430;16.936;2023-12-04T06:32:46;31.65;;;11.77;;
53903;SDS011;39812;52.430;16.936;2023-12-04T06:35:12;23.63;;;10.70;;
53903;SDS011;39812;52.430;16.936;2023-12-04T06:37:39;27.98;;;12.02;;
53903;SDS011;39812;52.430;16.936;2023-12-04T06:40:06;27.75;;;13.05;;
53903;SDS011;39812;52.430;16.936;2023-12-04T06:42:36;31.02;;;14.32;;
53903;SDS011;39812;52.430;16.936;2023-12-04T06:45:02;34.00;;;15.60;;
53903;SDS011;39812;52.430;16.936;2023-12-04T06:47:29;29.85;;;14.13;;
53903;SDS011;39812;52.430;16.936;2023-12-04T06:49:56;31.13;;;13.95;;
53903;SDS011;39812;52.430;16.936;2023-12-04T06:52:22;30.13;;;14.18;;
53903;SDS011;39812;52.430;16.936;2023-12-04T06:54:48;24.50;;;14.02;;
53903;SDS011;39812;52.430;16.936;2023-12-04T06:57:14;26.50;;;12.75;;
53903;SDS011;39812;52.430;16.936;2023-12-04T06:59:43;31.67;;;13.02;;
53903;SDS011;39812;52.430;16.936;2023-12-04T07:02:09;33.67;;;12.18;;
53903;SDS011;39812;52.430;16.936;2023-12-04T07:04:35;26.35;;;12.23;;
53903;SDS011;39812;52.430;16.936;2023-12-04T07:07:02;22.15;;;11.07;;
53903;SDS011;39812;52.430;16.936;2023-12-04T07:09:30;25.00;;;11.38;;
53903;SDS011;39812;52.430;16.936;2023-12-04T07:11:56;33.70;;;14.15;;
53903;SDS011;39812;52.430;16.936;2023-12-04T07:14:22;25.85;;;10.25;;
53903;SDS011;39812;52.430;16.936;2023-12-04T07:16:48;34.85;;;13.82;;
53903;SDS011;39812;52.430;16.936;2023-12-04T07:19:14;38.17;;;14.35;;
53903;SDS011;39812;52.430;16.936;2023-12-04T07:21:41;21.45;;;9.88;;
53903;SDS011;39812;52.430;16.936;2023-12-04T07:24:07;31.38;;;13.60;;
53903;SDS011;39812;52.430;16.936;2023-12-04T07:26:34;28.42;;;13.25;;
53903;SDS011;39812;52.430;16.936;2023-12-04T07:29:00;30.50;;;14.23;;
53903;SDS011;39812;52.430;16.936;2023-12-04T07:31:26;32.47;;;15.20;;
53903;SDS011;39812;52.430;16.936;2023-12-04T07:33:55;35.60;;;13.85;;
53903;SDS011;39812;52.430;16.936;2023-12-04T07:36:22;33.15;;;15.50;;
53903;SDS011;39812;52.430;16.936;2023-12-04T07:38:49;33.25;;;15.18;;
53903;SDS011;39812;52.430;16.936;2023-12-04T07:41:17;35.28;;;15.63;;
53903;SDS011;39812;52.430;16.936;2023-12-04T07:43:43;28.88;;;14.48;;
53903;SDS011;39812;52.430;16.936;2023-12-04T07:46:09;36.25;;;15.07;;
53903;SDS011;39812;52.430;16.936;2023-12-04T07:48:39;34.88;;;15.85;;
53903;SDS011;39812;52.430;16.936;2023-12-04T07:51:05;28.42;;;12.90;;
53903;SDS011;39812;52.430;16.936;2023-12-04T07:53:31;27.50;;;14.55;;
53903;SDS011;39812;52.430;16.936;2023-12-04T07:55:57;31.50;;;16.20;;
53903;SDS011;39812;52.430;16.936;2023-12-04T07:58:23;26.30;;;12.95;;
53903;SDS011;39812;52.430;16.936;2023-12-04T08:00:49;37.88;;;16.38;;
53903;SDS011;39812;52.430;16.936;2023-12-04T08:03:15;31.85;;;14.55;;
53903;SDS011;39812;52.430;16.936;2023-12-04T08:05:41;25.38;;;12.98;;
53903;SDS011;39812;52.430;16.936;2023-12-04T08:08:08;39.40;;;16.48;;
53903;SDS011;39812;52.430;16.936;2023-12-04T08:10:34;33.65;;;13.30;;
53903;SDS011;39812;52.430;16.936;2023-12-04T08:13:00;27.70;;;12.65;;
53903;SDS011;39812;52.430;16.936;2023-12-04T08:15:26;39.08;;;15.65;;
53903;SDS011;39812;52.430;16.936;2023-12-04T08:17:52;29.35;;;13.48;;
53903;SDS011;39812;52.430;16.936;2023-12-04T08:20:18;35.20;;;15.27;;
53903;SDS011;39812;52.430;16.936;2023-12-04T08:22:47;31.20;;;12.93;;
53903;SDS011;39812;52.430;16.936;2023-12-04T08:25:13;31.45;;;14.73;;
53903;SDS011;39812;52.430;16.936;2023-12-04T08:27:39;31.02;;;16.13;;
53903;SDS011;39812;52.430;16.936;2023-12-04T08:30:05;35.40;;;17.40;;
53903;SDS011;39812;52.430;16.936;2023-12-04T08:32:31;26.80;;;12.10;;
53903;SDS011;39812;52.430;16.936;2023-12-04T08:34:57;30.23;;;14.57;;
53903;SDS011;39812;52.430;16.936;2023-12-04T08:37:23;47.80;;;18.98;;
53903;SDS011;39812;52.430;16.936;2023-12-04T08:39:49;27.17;;;13.95;;
53903;SDS011;39812;52.430;16.936;2023-12-04T08:42:15;30.52;;;14.05;;
53903;SDS011;39812;52.430;16.936;2023-12-04T08:44:41;32.28;;;14.30;;
53903;SDS011;39812;52.430;16.936;2023-12-04T08:47:08;38.28;;;15.65;;
53903;SDS011;39812;52.430;16.936;2023-12-04T08:49:34;39.60;;;18.35;;
53903;SDS011;39812;52.430;16.936;2023-12-04T08:52:00;36.88;;;16.10;;
53903;SDS011;39812;52.430;16.936;2023-12-04T08:54:26;31.70;;;13.50;;
53903;SDS011;39812;52.430;16.936;2023-12-04T08:56:52;37.13;;;16.13;;
53903;SDS011;39812;52.430;16.936;2023-12-04T08:59:19;38.22;;;18.30;;
53903;SDS011;39812;52.430;16.936;2023-12-04T09:01:45;40.55;;;16.63;;
53903;SDS011;39812;52.430;16.936;2023-12-04T09:04:11;30.13;;;14.63;;
53903;SDS011;39812;52.430;16.936;2023-12-04T09:06:37;33.63;;;14.10;;
53903;SDS011;39812;52.430;16.936;2023-12-04T09:09:03;28.02;;;15.48;;
53903;SDS011;39812;52.430;16.936;2023-12-04T09:11:29;40.35;;;17.83;;
53903;SDS011;39812;52.430;16.936;2023-12-04T09:13:55;36.28;;;15.73;;
53903;SDS011;39812;52.430;16.936;2023-12-04T09:16:21;37.15;;;15.65;;
53903;SDS011;39812;52.430;16.936;2023-12-04T09:18:47;42.05;;;19.30;;
53903;SDS011;39812;52.430;16.936;2023-12-04T09:21:14;43.15;;;17.55;;
53903;SDS011;39812;52.430;16.936;2023-12-04T09:23:39;32.95;;;15.77;;
53903;SDS011;39812;52.430;16.936;2023-12-04T09:26:05;29.60;;;15.50;;
53903;SDS011;39812;52.430;16.936;2023-12-04T09:28:31;32.72;;;15.82;;
53903;SDS011;39812;52.430;16.936;2023-12-04T09:30:57;38.15;;;16.60;;
53903;SDS011;39812;52.430;16.936;2023-12-04T09:33:23;34.75;;;15.27;;
53903;SDS011;39812;52.430;16.936;2023-12-04T09:35:49;33.05;;;14.80;;
53903;SDS011;39812;52.430;16.936;2023-12-04T09:38:16;39.13;;;15.88;;
53903;SDS011;39812;52.430;16.936;2023-12-04T09:40:42;31.35;;;14.00;;
53903;SDS011;39812;52.430;16.936;2023-12-04T09:43:08;40.95;;;14.23;;
53903;SDS011;39812;52.430;16.936;2023-12-04T09:45:34;34.00;;;14.38;;
53903;SDS011;39812;52.430;16.936;2023-12-04T09:48:01;29.17;;;13.82;;
53903;SDS011;39812;52.430;16.936;2023-12-04T09:50:27;36.28;;;14.65;;
53903;SDS011;39812;52.430;16.936;2023-12-04T09:52:53;40.10;;;13.98;;
53903;SDS011;39812;52.430;16.936;2023-12-04T09:55:20;33.95;;;15.00;;
53903;SDS011;39812;52.430;16.936;2023-12-04T09:57:47;36.67;;;14.88;;
53903;SDS011;39812;52.430;16.936;2023-12-04T10:00:14;28.48;;;13.45;;
53903;SDS011;39812;52.430;16.936;2023-12-04T10:02:41;35.70;;;15.57;;
53903;SDS011;39812;52.430;16.936;2023-12-04T10:05:08;35.20;;;16.33;;
53903;SDS011;39812;52.430;16.936;2023-12-04T10:07:34;28.15;;;12.20;;
53903;SDS011;39812;52.430;16.936;2023-12-04T10:10:04;25.77;;;11.98;;
53903;SDS011;39812;52.430;16.936;2023-12-04T10:12:31;24.17;;;12.30;;
53903;SDS011;39812;52.430;16.936;2023-12-04T10:15:16;29.35;;;15.20;;
53903;SDS011;39812;52.430;16.936;2023-12-04T10:17:42;27.47;;;13.10;;
53903;SDS011;39812;52.430;16.936;2023-12-04T10:20:10;30.73;;;12.27;;
53903;SDS011;39812;52.430;16.936;2023-12-04T10:22:37;28.13;;;11.50;;
53903;SDS011;39812;52.430;16.936;2023-12-04T10:25:15;22.05;;;11.60;;
53903;SDS011;39812;52.430;16.936;2023-12-04T10:27:43;23.17;;;10.82;;
53903;SDS011;39812;52.430;16.936;2023-12-04T10:30:09;26.20;;;12.45;;
53903;SDS011;39812;52.430;16.936;2023-12-04T10:32:39;23.73;;;11.13;;
53903;SDS011;39812;52.430;16.936;2023-12-04T10:35:05;25.52;;;11.82;;
53903;SDS011;39812;52.430;16.936;2023-12-04T10:37:35;29.15;;;11.93;;
53903;SDS011;39812;52.430;16.936;2023-12-04T10:40:02;25.95;;;10.40;;
53903;SDS011;39812;52.430;16.936;2023-12-04T10:42:29;26.00;;;10.43;;
53903;SDS011;39812;52.430;16.936;2023-12-04T10:44:55;25.75;;;10.68;;
53903;SDS011;39812;52.430;16.936;2023-12-04T10:47:25;23.20;;;10.88;;
53903;SDS011;39812;52.430;16.936;2023-12-04T10:49:52;30.33;;;12.05;;
53903;SDS011;39812;52.430;16.936;2023-12-04T10:52:18;23.42;;;11.48;;
53903;SDS011;39812;52.430;16.936;2023-12-04T10:54:45;26.20;;;10.30;;
53903;SDS011;39812;52.430;16.936;2023-12-04T10:57:11;21.77;;;9.45;;
53903;SDS011;39812;52.430;16.936;2023-12-04T10:59:39;20.42;;;9.80;;
53903;SDS011;39812;52.430;16.936;2023-12-04T11:02:06;22.50;;;9.13;;
53903;SDS011;39812;52.430;16.936;2023-12-04T11:04:33;25.05;;;10.15;;
53903;SDS011;39812;52.430;16.936;2023-12-04T11:07:02;16.70;;;8.77;;
53903;SDS011;39812;52.430;16.936;2023-12-04T11:09:32;21.83;;;9.48;;
53903;SDS011;39812;52.430;16.936;2023-12-04T11:12:02;21.67;;;10.55;;
53903;SDS011;39812;52.430;16.936;2023-12-04T11:14:31;28.77;;;11.55;;
53903;SDS011;39812;52.430;16.936;2023-12-04T11:17:01;15.27;;;8.88;;
53903;SDS011;39812;52.430;16.936;2023-12-04T11:19:29;18.25;;;8.38;;
53903;SDS011;39812;52.430;16.936;2023-12-04T11:21:58;21.90;;;8.68;;
53903;SDS011;39812;52.430;16.936;2023-12-04T11:24:25;17.92;;;7.75;;
53903;SDS011;39812;52.430;16.936;2023-12-04T11:26:51;18.35;;;9.23;;
53903;SDS011;39812;52.430;16.936;2023-12-04T11:29:17;21.50;;;10.82;;
53903;SDS011;39812;52.430;16.936;2023-12-04T11:31:44;25.35;;;9.02;;
53903;SDS011;39812;52.430;16.936;2023-12-04T11:34:11;19.35;;;9.27;;
53903;SDS011;39812;52.430;16.936;2023-12-04T11:36:38;16.70;;;9.35;;
53903;SDS011;39812;52.430;16.936;2023-12-04T11:39:08;23.90;;;10.07;;
53903;SDS011;39812;52.430;16.936;2023-12-04T11:41:35;22.42;;;8.75;;
53903;SDS011;39812;52.430;16.936;2023-12-04T11:44:02;28.52;;;10.27;;
53903;SDS011;39812;52.430;16.936;2023-12-04T11:46:28;20.85;;;8.82;;
53903;SDS011;39812;52.430;16.936;2023-12-04T11:49:26;20.38;;;9.48;;
53903;SDS011;39812;52.430;16.936;2023-12-04T11:51:53;21.45;;;9.15;;
53903;SDS011;39812;52.430;16.936;2023-12-04T11:54:19;20.75;;;8.43;;
53903;SDS011;39812;52.430;16.936;2023-12-04T11:59:34;21.08;;;10.15;;
53903;SDS011;39812;52.430;16.936;2023-12-04T12:02:02;23.38;;;10.43;;
53903;SDS011;39812;52.430;16.936;2023-12-04T12:04:29;19.10;;;9.00;;
53903;SDS011;39812;52.430;16.936;2023-12-04T12:06:55;28.98;;;10.02;;
53903;SDS011;39812;52.430;16.936;2023-12-04T12:09:21;21.80;;;10.82;;
53903;SDS011;39812;52.430;16.936;2023-12-04T12:11:48;20.33;;;10.93;;
53903;SDS011;39812;52.430;16.936;2023-12-04T12:14:14;24.45;;;10.82;;
53903;SDS011;39812;52.430;16.936;2023-12-04T12:16:40;21.40;;;10.20;;
53903;SDS011;39812;52.430;16.936;2023-12-04T12:19:06;25.05;;;10.77;;
53903;SDS011;39812;52.430;16.936;2023-12-04T12:21:32;18.33;;;10.15;;
53903;SDS011;39812;52.430;16.936;2023-12-04T12:23:58;23.63;;;11.57;;
53903;SDS011;39812;52.430;16.936;2023-12-04T12:26:25;27.20;;;11.27;;
53903;SDS011;39812;52.430;16.936;2023-12-04T12:28:52;22.83;;;11.07;;
53903;SDS011;39812;52.430;16.936;2023-12-04T12:31:18;28.38;;;11.02;;
53903;SDS011;39812;52.430;16.936;2023-12-04T12:33:44;25.88;;;10.90;;
53903;SDS011;39812;52.430;16.936;2023-12-04T12:36:10;26.27;;;12.90;;
53903;SDS011;39812;52.430;16.936;2023-12-04T12:38:36;29.98;;;12.05;;
53903;SDS011;39812;52.430;16.936;2023-12-04T12:41:06;28.42;;;11.60;;
53903;SDS011;39812;52.430;16.936;2023-12-04T12:43:37;27.77;;;12.82;;
53903;SDS011;39812;52.430;16.936;2023-12-04T12:46:03;25.48;;;10.48;;
53903;SDS011;39812;52.430;16.936;2023-12-04T12:48:30;29.00;;;12.55;;
53903;SDS011;39812;52.430;16.936;2023-12-04T12:50:57;24.20;;;12.05;;
53903;SDS011;39812;52.430;16.936;2023-12-04T12:53:23;26.55;;;11.25;;
53903;SDS011;39812;52.430;16.936;2023-12-04T12:55:50;25.05;;;10.88;;
53903;SDS011;39812;52.430;16.936;2023-12-04T12:58:16;25.75;;;10.90;;
53903;SDS011;39812;52.430;16.936;2023-12-04T13:00:45;18.80;;;9.63;;
53903;SDS011;39812;52.430;16.936;2023-12-04T13:03:14;24.25;;;9.35;;
53903;SDS011;39812;52.430;16.936;2023-12-04T13:05:41;21.85;;;10.70;;
53903;SDS011;39812;52.430;16.936;2023-12-04T13:08:07;25.15;;;10.98;;
53903;SDS011;39812;52.430;16.936;2023-12-04T13:10:33;18.63;;;10.13;;
53903;SDS011;39812;52.430;16.936;2023-12-04T13:12:59;26.90;;;10.90;;
53903;SDS011;39812;52.430;16.936;2023-12-04T13:15:25;28.95;;;11.82;;
53903;SDS011;39812;52.430;16.936;2023-12-04T13:17:52;25.25;;;12.35;;
53903;SDS011;39812;52.430;16.936;2023-12-04T13:20:18;29.35;;;12.82;;
53903;SDS011;39812;52.430;16.936;2023-12-04T13:22:44;26.48;;;11.55;;
53903;SDS011;39812;52.430;16.936;2023-12-04T13:25:10;31.52;;;12.07;;
53903;SDS011;39812;52.430;16.936;2023-12-04T13:27:37;32.65;;;13.70;;
53903;SDS011;39812;52.430;16.936;2023-12-04T13:30:04;32.63;;;12.82;;
53903;SDS011;39812;52.430;16.936;2023-12-04T13:32:30;37.67;;;15.45;;
53903;SDS011;39812;52.430;16.936;2023-12-04T13:34:58;34.65;;;14.60;;
53903;SDS011;39812;52.430;16.936;2023-12-04T13:37:24;28.75;;;14.27;;
53903;SDS011;39812;52.430;16.936;2023-12-04T13:39:53;35.13;;;15.35;;
53903;SDS011;39812;52.430;16.936;2023-12-04T13:42:24;33.92;;;15.05;;
53903;SDS011;39812;52.430;16.936;2023-12-04T13:47:36;34.25;;;15.30;;
53903;SDS011;39812;52.430;16.936;2023-12-04T13:50:02;29.15;;;13.15;;
53903;SDS011;39812;52.430;16.936;2023-12-04T13:52:29;31.08;;;13.55;;
53903;SDS011;39812;52.430;16.936;2023-12-04T13:54:58;38.35;;;14.32;;
53903;SDS011;39812;52.430;16.936;2023-12-04T13:57:25;30.63;;;14.00;;
53903;SDS011;39812;52.430;16.936;2023-12-04T14:00:01;32.53;;;13.35;;
53903;SDS011;39812;52.430;16.936;2023-12-04T14:02:27;32.97;;;13.52;;
53903;SDS011;39812;52.430;16.936;2023-12-04T14:04:53;28.48;;;12.80;;
53903;SDS011;39812;52.430;16.936;2023-12-04T14:07:19;38.80;;;13.85;;
53903;SDS011;39812;52.430;16.936;2023-12-04T14:09:45;30.17;;;13.02;;
53903;SDS011;39812;52.430;16.936;2023-12-04T14:12:12;26.80;;;12.38;;